Time;durP1;ratioP1;P1;durP2;ratioP2;P2;SDS_P1;SDS_P2;PMS_P1;PMS_P2;Temp;Humidity;BMP_temperature;BMP_pressure;BME280_temperature;BME280_humidity;BME280_pressure;Samples;Min_cycle;Max_cycle;Signal;HPM_P1;HPM_P2
2023/01/07 00:01:27;;;;;;;0.97;0.90;;;;;;;9.75;95.26;98616.97;5036268;28;20236;-70
2023/01/07 00:03:55;;;;;;;0.80;0.80;;;;;;;9.82;94.41;98612.50;5036423;28;20233;-70
2023/01/07 00:06:34;;;;;;;1.03;0.90;;;;;;;9.79;94.92;98615.56;5036253;28;20223;-71
2023/01/07 00:09:01;;;;;;;1.07;1.00;;;;;;;9.83;94.47;98611.47;5036228;28;20220;-70
2023/01/07 00:11:31;;;;;;;0.80;0.80;;;;;;;9.91;94.13;98616.63;5036160;28;20230;-70
2023/01/07 00:13:59;;;;;;;0.83;0.83;;;;;;;9.82;94.89;98623.13;5036177;28;20216;-70
2023/01/07 00:16:28;;;;;;;1.17;0.80;;;;;;;9.75;95.54;98612.50;5036173;28;20205;-71
2023/01/07 00:18:57;;;;;;;1.93;1.00;;;;;;;9.69;98.37;98618.56;5035835;28;20657;-71
2023/01/07 00:21:25;;;;;;;0.70;0.70;;;;;;;9.61;97.87;98612.63;5035833;28;20248;-70
2023/01/07 00:24:01;;;;;;;0.90;0.90;;;;;;;9.58;100.00;98605.88;5036643;28;20194;-70
2023/01/07 00:26:31;;;;;;;1.00;1.00;;;;;;;9.55;100.00;98608.94;5036007;28;20186;-70
2023/01/07 00:28:58;;;;;;;0.80;0.80;;;;;;;9.54;100.00;98598.50;5035478;28;20704;-70
2023/01/07 00:31:28;;;;;;;2.50;0.80;;;;;;;9.50;100.00;98597.28;5035849;28;20249;-70
2023/01/07 00:34:07;;;;;;;1.07;0.90;;;;;;;9.48;100.00;98591.34;5035532;28;20216;-71
2023/01/07 00:36:38;;;;;;;0.77;0.77;;;;;;;9.46;100.00;98593.41;5035539;28;20594;-70
2023/01/07 00:39:06;;;;;;;0.97;0.80;;;;;;;9.50;100.00;98584.81;5034875;28;20199;-70
2023/01/07 00:41:33;;;;;;;2.80;1.10;;;;;;;9.46;100.00;98580.94;5035855;28;20230;-70
2023/01/07 00:44:00;;;;;;;1.13;0.90;;;;;;;9.49;100.00;98585.84;5035327;28;20543;-71
2023/01/07 00:46:26;;;;;;;1.10;1.00;;;;;;;9.47;100.00;98579.09;5035619;28;20220;-70
2023/01/07 00:48:53;;;;;;;1.40;1.20;;;;;;;9.45;100.00;98579.31;5035409;28;20226;-70
2023/01/07 00:51:19;;;;;;;1.00;1.00;;;;;;;9.47;100.00;98577.28;5035395;28;20226;-71
2023/01/07 00:53:46;;;;;;;1.23;1.10;;;;;;;9.45;100.00;98567.84;5035221;28;20249;-70
2023/01/07 00:56:14;;;;;;;1.17;1.07;;;;;;;9.45;100.00;98568.69;5035394;28;20297;-71
2023/01/07 00:58:41;;;;;;;2.17;1.10;;;;;;;9.42;100.00;98577.03;5035082;28;20209;-70
2023/01/07 01:01:10;;;;;;;1.40;1.30;;;;;;;9.40;100.00;98570.28;5034987;28;20230;-71
2023/01/07 01:03:36;;;;;;;1.03;1.00;;;;;;;9.39;100.00;98566.84;5035310;28;20213;-70
2023/01/07 01:06:14;;;;;;;1.40;1.27;;;;;;;9.38;100.00;98561.72;5035244;28;20202;-70
2023/01/07 01:08:42;;;;;;;1.57;1.30;;;;;;;9.33;100.00;98564.97;5035163;28;20194;-70
2023/01/07 01:11:10;;;;;;;1.30;1.20;;;;;;;9.39;100.00;98566.84;5035083;28;20222;-70
2023/01/07 01:13:37;;;;;;;1.30;1.20;;;;;;;9.48;100.00;98563.00;5035106;28;20202;-70
2023/01/07 01:16:08;;;;;;;1.20;1.10;;;;;;;9.49;100.00;98569.09;5035063;28;20205;-70
2023/01/07 01:18:35;;;;;;;2.97;1.30;;;;;;;9.48;100.00;98567.47;5035322;28;20541;-70
2023/01/07 01:21:10;;;;;;;1.30;1.20;;;;;;;9.47;100.00;98560.53;5035088;28;20226;-70
2023/01/07 01:23:37;;;;;;;1.20;1.10;;;;;;;9.43;100.00;98559.28;5034641;28;20196;-71
2023/01/07 01:26:06;;;;;;;1.70;1.20;;;;;;;9.45;100.00;98559.91;5034778;28;20212;-70
2023/01/07 01:28:33;;;;;;;1.90;1.23;;;;;;;9.45;100.00;98557.25;5034752;28;20210;-70
2023/01/07 01:30:59;;;;;;;1.73;1.10;;;;;;;9.46;100.00;98565.00;5034719;28;20229;-71
2023/01/07 01:33:26;;;;;;;1.20;1.00;;;;;;;9.48;100.00;98559.50;5034718;28;20205;-70
2023/01/07 01:35:52;;;;;;;1.87;1.20;;;;;;;9.45;100.00;98559.91;5034705;28;20216;-71
2023/01/07 01:38:19;;;;;;;2.77;1.30;;;;;;;9.42;100.00;98565.63;5034612;28;20216;-70
2023/01/07 01:40:45;;;;;;;1.00;1.00;;;;;;;9.43;100.00;98565.44;5034487;28;20221;-70
2023/01/07 01:43:29;;;;;;;1.33;1.23;;;;;;;9.39;100.00;98555.41;5034505;28;20221;-70
2023/01/07 01:45:56;;;;;;;1.17;1.00;;;;;;;9.40;100.00;98564.97;5034432;28;20217;-71
2023/01/07 01:48:22;;;;;;;0.90;0.90;;;;;;;9.38;100.00;98557.25;5033234;28;20206;-70
2023/01/07 01:50:51;;;;;;;2.33;1.10;;;;;;;9.38;100.00;98545.81;5034076;28;20228;-71
2023/01/07 01:53:25;;;;;;;2.13;1.23;;;;;;;9.39;100.00;98552.75;5034354;28;20214;-70
2023/01/07 01:55:57;;;;;;;1.30;1.20;;;;;;;9.38;100.00;98546.63;5034296;28;20194;-70
2023/01/07 01:58:32;;;;;;;2.00;1.30;;;;;;;9.38;100.00;98543.97;5034255;28;20190;-71
2023/01/07 02:00:58;;;;;;;1.77;1.40;;;;;;;9.33;100.00;98540.28;5033878;28;20185;-70
2023/01/07 02:03:26;;;;;;;1.30;1.20;;;;;;;9.32;100.00;98544.75;5034667;28;20212;-70
2023/01/07 02:05:53;;;;;;;1.50;1.40;;;;;;;9.35;100.00;98540.88;5034187;28;20232;-70
2023/01/07 02:08:21;;;;;;;1.70;1.60;;;;;;;9.31;100.00;98545.78;5034130;28;20220;-70
2023/01/07 02:10:54;;;;;;;2.30;1.40;;;;;;;9.32;100.00;98536.00;5033902;28;20226;-71
2023/01/07 02:13:39;;;;;;;1.40;1.20;;;;;;;9.31;100.00;98537.00;5032903;28;20557;-70
2023/01/07 02:16:38;;;;;;;2.13;1.23;;;;;;;9.28;100.00;98532.09;5033990;28;20208;-70
2023/01/07 02:19:23;;;;;;;1.80;1.20;;;;;;;9.38;100.00;98529.88;5032973;28;20208;-70
2023/01/07 02:22:08;;;;;;;1.10;1.10;;;;;;;9.45;100.00;98528.03;5033576;28;20234;-70
2023/01/07 02:25:20;;;;;;;1.30;1.20;;;;;;;9.35;100.00;98519.66;5032729;28;20555;-70
2023/01/07 02:28:02;;;;;;;0.80;0.80;;;;;;;9.33;100.00;98519.84;5032685;28;20189;-70
2023/01/07 02:30:55;;;;;;;1.23;1.00;;;;;;;9.32;100.00;98517.44;5033790;28;20317;-70
2023/01/07 02:33:41;;;;;;;1.10;1.00;;;;;;;9.34;100.00;98515.38;5033741;28;20201;-70
2023/01/07 02:36:12;;;;;;;3.00;1.00;;;;;;;9.22;100.00;98509.81;5033744;28;20201;-71
2023/01/07 02:39:02;;;;;;;1.10;1.00;;;;;;;9.20;100.00;98511.03;5033696;28;20201;-70
2023/01/07 02:41:57;;;;;;;0.90;0.80;;;;;;;9.23;100.00;98506.16;5018137;28;20230;-71
2023/01/07 02:44:35;;;;;;;0.80;0.80;;;;;;;9.25;100.00;98505.97;5033297;28;20190;-70
2023/01/07 02:47:09;;;;;;;1.33;1.03;;;;;;;9.21;100.00;98499.41;5032463;28;20190;-71
2023/01/07 02:49:35;;;;;;;1.00;1.00;;;;;;;9.24;100.00;98496.38;5033215;28;20681;-70
2023/01/07 02:52:31;;;;;;;1.10;1.00;;;;;;;9.22;100.00;98488.59;5033050;28;20237;-70
2023/01/07 02:55:06;;;;;;;1.30;1.00;;;;;;;9.20;100.00;98495.13;5030340;28;20206;-70
2023/01/07 02:57:58;;;;;;;1.07;0.90;;;;;;;9.20;100.00;98487.16;5033416;28;20212;-70
2023/01/07 03:00:55;;;;;;;1.23;1.03;;;;;;;9.19;100.00;98478.38;5033423;28;20182;-70
2023/01/07 03:03:35;;;;;;;1.00;0.90;;;;;;;9.15;100.00;98487.75;5034768;28;20194;-70
2023/01/07 03:06:40;;;;;;;1.20;0.80;;;;;;;9.13;100.00;98478.34;5037065;28;20239;-70
2023/01/07 03:09:38;;;;;;;1.13;0.97;;;;;;;9.17;100.00;98471.66;5034869;28;20205;-70
2023/01/07 03:12:13;;;;;;;0.77;0.77;;;;;;;9.14;100.00;98472.06;5036124;28;20226;-70
2023/01/07 03:15:00;;;;;;;0.70;0.70;;;;;;;9.11;100.00;98470.63;5035889;28;20194;-70
2023/01/07 03:17:33;;;;;;;1.70;0.80;;;;;;;9.16;100.00;98468.19;5029807;28;20201;-70
2023/01/07 03:20:01;;;;;;;0.87;0.80;;;;;;;9.17;100.00;98463.69;5037582;28;20217;-70
2023/01/07 03:22:31;;;;;;;1.17;0.80;;;;;;;9.14;100.00;98458.81;5036684;28;20237;-70
2023/01/07 03:24:58;;;;;;;0.70;0.70;;;;;;;9.14;100.00;98454.28;5037255;28;20190;-70
2023/01/07 03:27:27;;;;;;;1.00;0.87;;;;;;;9.12;100.00;98459.00;5036762;28;20213;-70
2023/01/07 03:29:54;;;;;;;0.80;0.80;;;;;;;9.14;100.00;98450.84;5037086;28;20198;-70
2023/01/07 03:32:29;;;;;;;0.70;0.70;;;;;;;9.18;100.00;98454.69;5036671;28;20237;-70
2023/01/07 03:34:56;;;;;;;0.53;0.53;;;;;;;9.23;99.70;98447.00;5036688;28;20193;-70
2023/01/07 03:37:26;;;;;;;1.23;0.70;;;;;;;9.16;99.73;98446.16;5036812;28;20255;-70
2023/01/07 03:39:52;;;;;;;0.83;0.77;;;;;;;9.16;98.55;98444.31;5037017;28;20220;-70
2023/01/07 03:45:16;;;;;;;0.97;0.60;;;;;;;9.19;98.55;98451.84;5036988;28;20549;-70
2023/01/07 03:47:47;;;;;;;0.67;0.67;;;;;;;9.21;99.17;98433.91;5036745;28;20213;-70
2023/01/07 03:50:14;;;;;;;1.17;0.63;;;;;;;9.24;97.20;98428.19;5036718;28;20194;-71
2023/01/07 03:52:40;;;;;;;1.23;0.60;;;;;;;9.26;95.93;98435.97;5036297;28;20226;-70
2023/01/07 03:55:07;;;;;;;0.73;0.73;;;;;;;9.24;94.76;98430.84;5037031;28;20206;-71
2023/01/07 03:57:33;;;;;;;0.70;0.60;;;;;;;9.23;92.77;98429.22;5036521;28;20233;-70
2023/01/07 04:00:00;;;;;;;0.60;0.60;;;;;;;9.23;93.01;98428.41;5036306;28;20300;-70
2023/01/07 04:02:27;;;;;;;0.80;0.70;;;;;;;9.17;98.24;98421.25;5036278;28;20222;-71
2023/01/07 04:04:53;;;;;;;0.60;0.60;;;;;;;9.16;99.47;98419.63;5036001;28;20688;-70
2023/01/07 04:07:19;;;;;;;0.70;0.70;;;;;;;9.16;96.87;98412.50;5036163;28;20229;-70
2023/01/07 04:09:48;;;;;;;0.63;0.60;;;;;;;9.16;95.63;98409.84;5036133;28;20209;-71
2023/01/07 04:12:14;;;;;;;1.30;0.73;;;;;;;9.18;97.84;98412.25;5036016;28;20264;-71
2023/01/07 04:14:41;;;;;;;0.50;0.50;;;;;;;9.13;100.00;98407.56;5034337;28;20571;-70
2023/01/07 04:17:07;;;;;;;0.60;0.60;;;;;;;9.12;97.80;98407.78;5035899;28;20205;-71
2023/01/07 04:19:33;;;;;;;0.70;0.70;;;;;;;9.20;94.42;98412.91;5035585;28;20684;-71
2023/01/07 04:22:00;;;;;;;0.70;0.70;;;;;;;9.23;92.93;98400.03;5035691;28;20234;-70
2023/01/07 04:24:26;;;;;;;0.70;0.70;;;;;;;9.24;93.41;98401.66;5035530;28;20214;-70
2023/01/07 04:26:53;;;;;;;0.80;0.80;;;;;;;9.18;97.40;98399.00;5035640;28;20695;-70
2023/01/07 04:29:19;;;;;;;1.10;0.90;;;;;;;9.21;96.52;98403.91;5035433;28;20692;-71
2023/01/07 04:31:46;;;;;;;1.97;1.40;;;;;;;9.19;98.45;98395.34;5035670;28;20252;-70
2023/01/07 04:34:12;;;;;;;2.47;1.77;;;;;;;9.14;100.00;98400.44;5035655;28;20210;-71
2023/01/07 04:36:38;;;;;;;2.00;1.80;;;;;;;9.11;100.00;98384.94;5035532;28;20202;-71
2023/01/07 04:39:05;;;;;;;2.57;1.67;;;;;;;9.05;100.00;98391.84;5035434;28;20214;-70
2023/01/07 04:41:31;;;;;;;2.37;2.00;;;;;;;9.24;100.00;98384.94;5035324;28;20234;-70
2023/01/07 04:43:57;;;;;;;2.57;2.17;;;;;;;9.11;100.00;98390.22;5035412;28;20208;-70
2023/01/07 04:46:24;;;;;;;2.43;2.20;;;;;;;9.07;100.00;98384.53;5035301;28;20210;-70
2023/01/07 04:48:50;;;;;;;2.43;2.00;;;;;;;9.13;100.00;98381.06;5035161;28;20206;-70
2023/01/07 04:51:19;;;;;;;3.17;2.10;;;;;;;9.04;100.00;98373.47;5035295;28;20247;-70
2023/01/07 04:53:45;;;;;;;2.50;2.30;;;;;;;9.04;100.00;98370.81;5035379;28;20297;-70
2023/01/07 04:56:12;;;;;;;3.83;2.50;;;;;;;9.11;100.00;98371.66;5035059;28;20215;-70
2023/01/07 04:58:38;;;;;;;3.00;2.60;;;;;;;9.02;100.00;98367.56;5035357;28;20202;-70
2023/01/07 05:01:05;;;;;;;3.87;2.73;;;;;;;9.10;100.00;98367.38;5035197;28;20225;-70
2023/01/07 05:03:33;;;;;;;4.90;3.10;;;;;;;9.01;100.00;98364.09;5035287;28;20306;-70
2023/01/07 05:06:00;;;;;;;3.50;2.70;;;;;;;8.99;100.00;98365.31;5034778;28;20313;-70
2023/01/07 05:08:26;;;;;;;3.03;2.73;;;;;;;8.94;100.00;98357.97;5035053;28;20206;-71
2023/01/07 05:10:53;;;;;;;2.90;2.70;;;;;;;8.98;100.00;98363.69;5034835;28;20202;-70
2023/01/07 05:13:22;;;;;;;2.90;2.60;;;;;;;8.98;100.00;98358.38;5034529;28;20719;-70
2023/01/07 05:15:48;;;;;;;3.10;2.80;;;;;;;8.95;100.00;98354.28;5034996;28;20264;-70
2023/01/07 05:18:15;;;;;;;3.10;2.87;;;;;;;9.02;100.00;98354.31;5034891;28;20213;-71
2023/01/07 05:20:41;;;;;;;3.50;3.00;;;;;;;9.03;100.00;98350.63;5034622;28;20222;-71
2023/01/07 05:23:08;;;;;;;3.90;2.97;;;;;;;8.98;100.00;98353.06;5034578;28;20217;-70
2023/01/07 05:25:35;;;;;;;5.63;2.93;;;;;;;8.88;100.00;98347.34;5034084;28;20221;-70
2023/01/07 05:28:01;;;;;;;4.73;2.70;;;;;;;8.87;100.00;98335.91;5035327;28;20232;-71
2023/01/07 05:30:28;;;;;;;2.80;2.60;;;;;;;8.88;100.00;98336.75;5034487;28;20204;-70
2023/01/07 05:32:54;;;;;;;3.20;2.90;;;;;;;8.86;100.00;98338.75;5034354;28;20237;-70
2023/01/07 05:35:20;;;;;;;2.80;2.60;;;;;;;8.84;100.00;98332.84;5034563;28;20209;-70
2023/01/07 05:37:47;;;;;;;2.80;2.60;;;;;;;8.89;100.00;98333.06;5034387;28;20213;-71
2023/01/07 05:40:13;;;;;;;3.30;3.00;;;;;;;8.87;100.00;98330.63;5034486;28;20260;-72
2023/01/07 05:42:40;;;;;;;3.87;3.00;;;;;;;8.85;100.00;98331.84;5034272;28;20261;-71
2023/01/07 05:45:07;;;;;;;3.00;2.70;;;;;;;8.82;100.00;98333.06;5034267;28;20202;-72
2023/01/07 05:47:33;;;;;;;4.13;2.77;;;;;;;8.84;100.00;98327.56;5034038;28;20209;-72
2023/01/07 05:49:59;;;;;;;2.50;2.30;;;;;;;8.83;100.00;98320.63;5034649;28;20534;-71
2023/01/07 05:52:26;;;;;;;4.97;2.83;;;;;;;8.84;100.00;98320.44;5034192;28;20228;-71
2023/01/07 05:54:52;;;;;;;5.00;2.80;;;;;;;8.85;100.00;98318.56;5034135;28;20332;-71
2023/01/07 05:57:18;;;;;;;2.50;2.20;;;;;;;8.88;100.00;98316.34;5034264;28;20221;-71
2023/01/07 05:59:45;;;;;;;3.43;2.57;;;;;;;8.88;100.00;98305.72;5033790;28;20661;-71
2023/01/07 06:02:11;;;;;;;2.57;2.37;;;;;;;8.84;100.00;98307.19;5034069;28;20616;-71
2023/01/07 06:04:37;;;;;;;2.53;2.30;;;;;;;8.89;100.00;98306.56;5034066;28;20209;-71
2023/01/07 06:07:04;;;;;;;3.17;2.30;;;;;;;8.73;100.00;98306.97;5033985;28;20229;-71
2023/01/07 06:09:30;;;;;;;2.70;2.50;;;;;;;8.76;100.00;98301.22;5033922;28;20216;-71
2023/01/07 06:11:57;;;;;;;2.43;2.23;;;;;;;8.83;100.00;98299.41;5033821;28;20251;-71
2023/01/07 06:14:24;;;;;;;3.37;2.00;;;;;;;8.82;100.00;98300.44;5033818;28;20208;-71
2023/01/07 06:16:50;;;;;;;1.83;1.73;;;;;;;8.76;100.00;98304.72;5034245;28;20214;-71
2023/01/07 06:19:17;;;;;;;1.97;1.67;;;;;;;8.84;100.00;98303.69;5033780;28;20593;-71
2023/01/07 06:21:43;;;;;;;1.97;1.77;;;;;;;8.85;100.00;98300.84;5033273;28;20229;-71
2023/01/07 06:24:10;;;;;;;2.17;1.70;;;;;;;8.82;100.00;98298.59;5033689;28;20210;-71
2023/01/07 06:26:37;;;;;;;2.53;1.30;;;;;;;8.81;100.00;98304.09;5033836;28;20211;-71
2023/01/07 06:29:03;;;;;;;1.43;1.30;;;;;;;8.81;100.00;98298.78;5033782;28;20210;-71
2023/01/07 06:31:29;;;;;;;1.53;1.10;;;;;;;8.83;100.00;98310.03;5033654;28;20239;-71
2023/01/07 06:33:56;;;;;;;1.60;1.40;;;;;;;8.82;100.00;98301.25;5033596;28;20202;-71
2023/01/07 06:36:22;;;;;;;1.30;1.20;;;;;;;8.78;100.00;98300.00;5033097;28;20210;-71
2023/01/07 06:38:48;;;;;;;2.43;1.47;;;;;;;8.87;100.00;98295.34;5032747;28;20665;-71
2023/01/07 06:41:15;;;;;;;1.13;1.07;;;;;;;8.76;100.00;98299.41;5033092;28;20590;-71
2023/01/07 06:43:41;;;;;;;1.13;1.03;;;;;;;8.82;99.42;98292.50;5033531;28;20202;-71
2023/01/07 06:46:08;;;;;;;1.37;1.10;;;;;;;8.81;98.46;98290.84;5033504;28;20236;-71
2023/01/07 06:48:34;;;;;;;2.40;1.20;;;;;;;8.82;98.12;98285.34;5033251;28;20665;-71
2023/01/07 06:51:00;;;;;;;1.10;1.00;;;;;;;8.86;97.61;98283.09;5033069;28;20594;-72
2023/01/07 06:53:27;;;;;;;1.30;1.20;;;;;;;8.84;97.35;98283.31;5033429;28;20206;-71
2023/01/07 06:55:53;;;;;;;1.40;1.30;;;;;;;8.81;99.09;98285.53;5033339;28;20206;-71
2023/01/07 06:58:20;;;;;;;1.57;1.13;;;;;;;8.84;96.18;98275.38;5033299;28;20216;-71
2023/01/07 07:00:46;;;;;;;1.97;1.23;;;;;;;8.85;97.70;98276.16;5033086;28;20222;-71
2023/01/07 07:03:12;;;;;;;1.27;1.17;;;;;;;8.87;95.03;98277.59;5033180;28;20210;-71
2023/01/07 07:05:39;;;;;;;1.43;1.00;;;;;;;8.81;96.53;98274.94;5033090;28;20212;-71
2023/01/07 07:08:05;;;;;;;1.30;1.20;;;;;;;8.84;96.69;98278.03;5033118;28;20206;-71
2023/01/07 07:10:32;;;;;;;1.00;1.00;;;;;;;8.79;96.42;98275.13;5033161;28;20252;-72
2023/01/07 07:12:58;;;;;;;1.07;1.07;;;;;;;8.78;95.99;98270.84;5033104;28;20240;-71
2023/01/07 07:15:25;;;;;;;2.27;1.30;;;;;;;8.80;97.01;98266.19;5033169;28;20209;-71
2023/01/07 07:17:52;;;;;;;1.00;1.00;;;;;;;8.81;96.46;98272.28;5032985;28;20684;-72
2023/01/07 07:20:18;;;;;;;1.00;1.00;;;;;;;8.80;93.58;98268.00;5032840;28;20298;-71
2023/01/07 07:22:48;;;;;;;1.00;1.00;;;;;;;8.82;92.84;98265.97;5032488;28;20736;-71
2023/01/07 07:25:15;;;;;;;1.30;1.20;;;;;;;8.79;94.52;98272.47;5033059;28;20209;-71
2023/01/07 07:27:45;;;;;;;1.10;0.90;;;;;;;8.81;95.18;98266.97;5033018;28;20210;-71
2023/01/07 07:30:13;;;;;;;1.00;1.00;;;;;;;8.73;94.49;98275.16;5033181;28;20186;-71
2023/01/07 07:32:40;;;;;;;0.90;0.90;;;;;;;8.73;90.88;98275.16;5032777;28;20626;-71
2023/01/07 07:35:08;;;;;;;1.23;1.13;;;;;;;8.70;92.16;98272.88;5032972;28;20233;-71
2023/01/07 07:37:35;;;;;;;1.10;1.10;;;;;;;8.73;92.73;98275.16;5032887;28;20205;-71
2023/01/07 07:40:02;;;;;;;1.27;1.00;;;;;;;8.70;93.33;98268.41;5032549;28;20714;-72
2023/01/07 07:42:28;;;;;;;1.27;1.03;;;;;;;8.65;92.74;98267.38;5032440;28;20701;-71
2023/01/07 07:44:54;;;;;;;0.90;0.90;;;;;;;8.72;93.15;98258.41;5032620;28;20206;-71
2023/01/07 07:47:21;;;;;;;0.80;0.80;;;;;;;8.70;92.35;98249.03;5032970;28;20206;-70
2023/01/07 07:49:49;;;;;;;0.80;0.80;;;;;;;8.69;91.80;98242.09;5035529;28;20222;-71
2023/01/07 07:52:15;;;;;;;0.97;0.93;;;;;;;8.69;91.52;98242.91;5037013;28;20284;-70
2023/01/07 07:54:41;;;;;;;1.03;1.03;;;;;;;8.72;89.98;98239.88;5036558;28;20206;-70
2023/01/07 07:57:08;;;;;;;0.90;0.90;;;;;;;8.77;89.80;98247.19;5036424;28;20212;-72
2023/01/07 07:59:34;;;;;;;0.70;0.70;;;;;;;8.76;93.23;98249.03;5036403;28;20221;-70
2023/01/07 08:02:01;;;;;;;0.70;0.70;;;;;;;8.73;92.59;98243.34;5036127;28;20237;-70
2023/01/07 08:04:27;;;;;;;0.80;0.80;;;;;;;8.78;91.84;98240.91;5035946;28;20206;-71
2023/01/07 08:06:54;;;;;;;0.97;0.97;;;;;;;8.71;92.83;98245.38;5035813;28;20217;-70
2023/01/07 08:09:21;;;;;;;1.40;0.83;;;;;;;8.77;90.45;98239.25;5036088;28;20206;-70
2023/01/07 08:11:47;;;;;;;1.10;1.00;;;;;;;8.79;91.37;98242.53;5036566;28;20233;-70
2023/01/07 08:14:13;;;;;;;1.10;1.00;;;;;;;8.83;91.11;98239.25;5035803;28;20210;-70
2023/01/07 08:16:40;;;;;;;0.90;0.90;;;;;;;8.86;92.33;98241.50;5036039;28;20232;-73
2023/01/07 08:19:06;;;;;;;2.17;1.00;;;;;;;8.83;91.22;98235.81;5035902;28;20206;-71
2023/01/07 08:21:32;;;;;;;1.33;0.90;;;;;;;8.84;93.57;98227.66;5035479;28;20225;-71
2023/01/07 08:23:59;;;;;;;0.70;0.70;;;;;;;8.87;93.57;98231.72;5035741;28;20201;-71
2023/01/07 08:26:25;;;;;;;0.90;0.90;;;;;;;8.85;93.13;98226.63;5035587;28;20217;-71
2023/01/07 08:28:51;;;;;;;0.60;0.60;;;;;;;8.91;94.65;98230.31;5035466;28;20206;-71
2023/01/07 08:31:18;;;;;;;2.00;0.87;;;;;;;8.97;91.55;98229.47;5035426;28;20232;-71
2023/01/07 08:33:44;;;;;;;0.80;0.80;;;;;;;8.94;93.74;98224.56;5035525;28;20232;-70
2023/01/07 08:36:11;;;;;;;0.80;0.80;;;;;;;8.96;94.15;98230.50;5035657;28;20210;-71
2023/01/07 08:38:37;;;;;;;1.03;0.90;;;;;;;8.98;92.87;98228.44;5035350;28;20669;-71
2023/01/07 08:41:04;;;;;;;0.80;0.80;;;;;;;8.96;92.12;98227.84;5035905;28;20567;-71
2023/01/07 08:43:30;;;;;;;1.00;1.00;;;;;;;9.03;90.38;98224.16;5035003;28;20221;-71
2023/01/07 08:45:56;;;;;;;0.80;0.80;;;;;;;9.02;89.24;98219.06;5035445;28;20231;-71
2023/01/07 08:48:23;;;;;;;0.93;0.80;;;;;;;9.06;89.14;98226.38;5035367;28;20209;-71
2023/01/07 08:50:52;;;;;;;0.80;0.80;;;;;;;9.02;89.71;98217.25;5035265;28;20209;-71
2023/01/07 08:53:23;;;;;;;0.90;0.80;;;;;;;9.08;89.42;98219.06;5035202;28;20202;-71
2023/01/07 08:55:49;;;;;;;0.70;0.70;;;;;;;9.09;92.48;98217.25;5035212;28;20201;-71
2023/01/07 08:58:16;;;;;;;0.90;0.90;;;;;;;9.13;90.23;98206.00;5034814;28;20209;-71
2023/01/07 09:00:42;;;;;;;1.47;0.90;;;;;;;9.16;92.08;98210.06;5034119;28;20210;-71
2023/01/07 09:03:09;;;;;;;0.80;0.80;;;;;;;9.19;87.79;98210.47;5034997;28;20202;-71
2023/01/07 09:05:35;;;;;;;1.03;0.93;;;;;;;9.24;87.50;98207.22;5035429;28;20209;-71
2023/01/07 09:08:02;;;;;;;0.87;0.83;;;;;;;9.26;89.22;98203.31;5035025;28;20212;-71
2023/01/07 09:10:30;;;;;;;1.03;0.90;;;;;;;9.31;88.12;98205.34;5034600;28;20669;-71
2023/01/07 09:12:56;;;;;;;1.07;1.07;;;;;;;9.36;89.99;98208.19;5034491;28;20709;-71
2023/01/07 09:15:22;;;;;;;0.90;0.90;;;;;;;9.28;89.22;98211.09;5033559;28;20300;-71
2023/01/07 09:17:49;;;;;;;1.67;0.90;;;;;;;9.41;87.58;98206.56;5034842;28;20209;-71
2023/01/07 09:20:15;;;;;;;1.00;0.90;;;;;;;9.50;85.93;98210.63;5035136;28;20296;-71
2023/01/07 09:22:42;;;;;;;0.97;0.97;;;;;;;9.59;88.61;98209.38;5034382;28;20234;-71
2023/01/07 09:25:09;;;;;;;1.10;1.00;;;;;;;9.54;86.21;98205.69;5034663;28;20206;-71
2023/01/07 09:27:36;;;;;;;1.00;1.00;;;;;;;9.56;85.94;98209.78;5034642;28;20292;-71
2023/01/07 09:30:02;;;;;;;1.40;1.30;;;;;;;9.71;85.34;98206.88;5034419;28;20209;-71
2023/01/07 09:32:29;;;;;;;1.90;1.00;;;;;;;9.84;86.62;98206.84;5034340;28;20229;-71
2023/01/07 09:34:55;;;;;;;1.33;1.23;;;;;;;9.77;86.36;98203.41;5034449;28;20210;-71
2023/01/07 09:37:22;;;;;;;1.30;1.20;;;;;;;9.85;87.12;98211.09;5034471;28;20213;-71
2023/01/07 09:39:49;;;;;;;1.43;0.90;;;;;;;9.93;85.60;98217.03;5034266;28;20212;-71
2023/01/07 09:42:37;;;;;;;1.60;1.50;;;;;;;9.88;84.90;98218.66;5034068;28;20229;-71
2023/01/07 09:45:22;;;;;;;1.30;1.20;;;;;;;9.87;85.93;98214.38;5034340;28;20202;-71
2023/01/07 09:47:55;;;;;;;1.70;1.60;;;;;;;9.91;87.78;98211.09;5034359;28;20191;-71
2023/01/07 09:50:36;;;;;;;1.53;1.40;;;;;;;9.85;84.96;98211.09;5034161;28;20210;-71
2023/01/07 09:53:12;;;;;;;1.93;1.73;;;;;;;9.83;84.73;98206.00;5034430;28;20229;-71
2023/01/07 09:55:42;;;;;;;1.90;1.70;;;;;;;9.99;84.94;98194.91;5033528;28;20197;-71
2023/01/07 09:58:16;;;;;;;1.83;1.73;;;;;;;9.98;84.32;98192.47;5033894;28;20209;-71
2023/01/07 10:01:01;;;;;;;1.70;1.60;;;;;;;9.93;84.69;98194.94;5033710;28;20613;-71
2023/01/07 10:03:53;;;;;;;2.27;2.07;;;;;;;9.90;86.00;98192.69;5033799;28;20205;-71
2023/01/07 10:06:42;;;;;;;2.07;1.97;;;;;;;10.10;83.95;98180.19;5032460;28;20220;-71
2023/01/07 10:09:35;;;;;;;2.77;2.10;;;;;;;9.82;84.83;98183.13;5032781;28;20194;-71
2023/01/07 10:12:33;;;;;;;2.20;2.00;;;;;;;9.70;84.80;98179.53;5033549;28;20232;-71
2023/01/07 10:15:19;;;;;;;4.03;2.30;;;;;;;9.63;85.03;98184.03;5033766;28;20193;-71
2023/01/07 10:17:51;;;;;;;2.30;2.10;;;;;;;9.72;86.49;98174.00;5033537;28;20538;-71
2023/01/07 10:20:39;;;;;;;2.70;2.50;;;;;;;9.86;84.57;98162.31;5033446;28;20217;-71
2023/01/07 10:23:12;;;;;;;2.60;2.40;;;;;;;9.97;83.66;98156.31;5033574;28;20233;-71
2023/01/07 10:25:50;;;;;;;2.60;2.40;;;;;;;10.00;83.64;98154.03;5033330;28;20586;-71
2023/01/07 10:28:25;;;;;;;2.30;2.10;;;;;;;10.15;83.58;98141.34;5033552;28;20194;-70
2023/01/07 10:30:51;;;;;;;2.60;2.40;;;;;;;10.17;84.00;98133.97;5033385;28;20189;-71
2023/01/07 10:33:25;;;;;;;2.43;2.23;;;;;;;10.10;80.63;98146.44;5033364;28;20205;-70
2023/01/07 10:36:24;;;;;;;2.33;2.17;;;;;;;10.01;81.59;98152.22;5033395;28;20241;-71
2023/01/07 10:39:18;;;;;;;2.77;2.30;;;;;;;10.17;81.49;98136.63;5013940;28;20206;-70
2023/01/07 10:42:15;;;;;;;2.67;2.17;;;;;;;10.11;80.16;98139.31;5033031;28;20226;-71
2023/01/07 10:45:09;;;;;;;2.70;2.40;;;;;;;9.95;81.52;98131.78;5032872;28;20285;-71
2023/01/07 10:47:44;;;;;;;2.60;2.40;;;;;;;9.76;82.14;98130.91;5033249;28;20187;-71
2023/01/07 10:50:20;;;;;;;2.50;2.30;;;;;;;9.76;81.47;98128.25;5033083;28;20604;-71
2023/01/07 10:53:25;;;;;;;2.63;2.43;;;;;;;9.86;81.42;98117.97;5033374;28;20664;-71
2023/01/07 10:56:04;;;;;;;2.40;2.20;;;;;;;10.10;80.84;98106.59;5033061;28;20319;-71
2023/01/07 10:58:51;;;;;;;2.43;2.23;;;;;;;9.98;80.81;98099.50;5031723;28;20201;-71
2023/01/07 11:01:39;;;;;;;2.50;2.30;;;;;;;9.98;80.93;98099.50;5032888;28;20236;-71
2023/01/07 11:04:14;;;;;;;2.57;2.33;;;;;;;10.07;80.21;98092.94;5033050;28;20198;-71
2023/01/07 11:06:49;;;;;;;2.00;1.90;;;;;;;10.00;80.47;98094.81;5033109;28;20206;-71
2023/01/07 11:09:25;;;;;;;2.50;2.30;;;;;;;10.15;80.84;98087.38;5032759;28;20633;-71
2023/01/07 11:11:53;;;;;;;2.73;2.53;;;;;;;10.17;79.79;98077.34;5033018;28;20271;-71
2023/01/07 11:14:24;;;;;;;2.50;2.30;;;;;;;10.29;79.93;98080.94;5033023;28;20553;-71
2023/01/07 11:16:57;;;;;;;2.77;2.57;;;;;;;10.29;79.46;98076.44;5033009;28;20216;-71
2023/01/07 11:19:42;;;;;;;3.27;2.97;;;;;;;10.27;79.79;98065.22;5033059;28;20194;-71
2023/01/07 11:22:27;;;;;;;2.90;2.70;;;;;;;10.38;80.81;98059.22;5033151;28;20226;-71
2023/01/07 11:24:55;;;;;;;3.30;3.00;;;;;;;10.32;79.92;98056.59;5035856;28;20206;-71
2023/01/07 11:27:25;;;;;;;3.03;2.80;;;;;;;10.34;79.69;98054.53;5036632;28;20210;-71
2023/01/07 11:30:04;;;;;;;3.60;3.30;;;;;;;10.47;79.58;98055.25;5036947;28;20210;-71
2023/01/07 11:32:34;;;;;;;3.00;2.50;;;;;;;10.44;79.86;98045.03;5036764;28;20226;-71
2023/01/07 11:35:03;;;;;;;2.63;2.43;;;;;;;10.52;80.57;98046.59;5037021;28;20209;-71
2023/01/07 11:37:38;;;;;;;2.90;2.70;;;;;;;10.46;79.83;98037.66;5036134;28;20206;-71
2023/01/07 11:40:19;;;;;;;2.80;2.60;;;;;;;10.49;80.75;98031.09;5036132;28;20683;-71
2023/01/07 11:42:56;;;;;;;3.20;2.90;;;;;;;10.53;79.48;98022.47;5036387;28;20259;-71
2023/01/07 11:45:25;;;;;;;3.17;2.87;;;;;;;10.58;78.92;98017.31;5035026;28;20676;-71
2023/01/07 11:48:15;;;;;;;3.33;2.40;;;;;;;10.56;79.24;98015.91;5035795;28;20209;-71
2023/01/07 11:50:44;;;;;;;2.67;2.47;;;;;;;10.73;78.72;98022.28;5035993;28;20562;-71
2023/01/07 11:53:13;;;;;;;2.50;2.30;;;;;;;10.57;79.11;98018.34;5036593;28;20202;-71
2023/01/07 11:55:41;;;;;;;2.47;2.27;;;;;;;10.65;79.55;98020.72;5036393;28;20244;-71
2023/01/07 11:58:19;;;;;;;2.73;2.53;;;;;;;10.65;78.27;98007.44;5036091;28;20212;-71